Time;durP1;ratioP1;P1;durP2;ratioP2;P2;SDS_P1;SDS_P2;PMS_P1;PMS_P2;Temp;Humidity;BMP_temperature;BMP_pressure;BME280_temperature;BME280_humidity;BME280_pressure;Samples;Min_cycle;Max_cycle;Signal;HPM_P1;HPM_P2
2022/10/02 00:00:15;;;;;;;1.30;1.20;;;;;;;;;;5052362;28;20595;-81
2022/10/02 00:02:47;;;;;;;0.93;0.90;;;;;;;;;;5052781;28;20233;-81
2022/10/02 00:05:17;;;;;;;0.97;0.97;;;;;;;;;;5052338;28;20205;-81
2022/10/02 00:07:46;;;;;;;0.93;0.87;;;;;;;;;;5052809;28;20198;-81
2022/10/02 00:10:17;;;;;;;1.10;1.10;;;;;;;;;;5052577;28;20205;-86
2022/10/02 00:12:45;;;;;;;1.53;1.40;;;;;;;;;;5052535;28;20556;-84
2022/10/02 00:15:15;;;;;;;1.53;1.07;;;;;;;;;;5052555;28;20237;-85
2022/10/02 00:17:46;;;;;;;0.83;0.83;;;;;;;;;;5052264;28;20202;-83
2022/10/02 00:20:14;;;;;;;1.37;1.27;;;;;;;;;;5052241;28;20216;-84
2022/10/02 00:22:48;;;;;;;2.63;1.30;;;;;;;;;;5052977;28;20206;-83
2022/10/02 00:25:23;;;;;;;1.60;1.50;;;;;;;;;;5052291;28;20593;-83
2022/10/02 00:28:04;;;;;;;0.87;0.87;;;;;;;;;;5052209;28;20205;-83
2022/10/02 00:30:37;;;;;;;0.90;0.90;;;;;;;;;;5052225;28;20608;-84
2022/10/02 00:33:13;;;;;;;0.90;0.90;;;;;;;;;;5051973;28;20250;-84
2022/10/02 00:35:51;;;;;;;0.97;0.97;;;;;;;;;;5052122;28;20236;-84
2022/10/02 00:38:29;;;;;;;0.80;0.80;;;;;;;;;;5052131;28;20217;-83
2022/10/02 00:41:17;;;;;;;1.00;1.00;;;;;;;;;;5051880;28;20622;-84
2022/10/02 00:43:49;;;;;;;1.07;1.03;;;;;;;;;;5052137;28;20340;-82
2022/10/02 00:46:35;;;;;;;0.90;0.73;;;;;;;;;;5051881;28;20216;-83
2022/10/02 00:49:17;;;;;;;0.90;0.90;;;;;;;;;;5038797;28;20209;-84
2022/10/02 00:51:52;;;;;;;0.57;0.57;;;;;;;;;;5051871;28;20201;-83
2022/10/02 00:54:28;;;;;;;0.30;0.30;;;;;;;;;;5051221;28;20216;-82
2022/10/02 00:57:02;;;;;;;0.60;0.60;;;;;;;;;;5051460;28;20208;-84
2022/10/02 00:59:43;;;;;;;0.40;0.40;;;;;;;;;;5051239;28;20213;-82
2022/10/02 01:02:14;;;;;;;0.60;0.60;;;;;;;;;;5051726;28;20205;-81
2022/10/02 01:04:42;;;;;;;0.40;0.40;;;;;;;;;;5038002;28;20660;-82
2022/10/02 01:07:11;;;;;;;0.30;0.30;;;;;;;;;;5051305;28;20202;-82
2022/10/02 01:09:38;;;;;;;0.30;0.30;;;;;;;;;;5051230;28;20204;-82
2022/10/02 01:12:05;;;;;;;0.67;0.40;;;;;;;;;;5051232;28;20198;-81
2022/10/02 01:14:33;;;;;;;0.50;0.50;;;;;;;;;;5050966;28;20284;-82
2022/10/02 01:17:00;;;;;;;0.40;0.40;;;;;;;;;;5050623;28;20297;-82
2022/10/02 01:19:36;;;;;;;0.53;0.53;;;;;;;;;;5051163;28;20268;-82
2022/10/02 01:22:10;;;;;;;0.30;0.30;;;;;;;;;;5051312;28;20201;-81
2022/10/02 01:24:57;;;;;;;0.57;0.57;;;;;;;;;;5050963;28;21034;-81
2022/10/02 01:27:26;;;;;;;0.50;0.50;;;;;;;;;;5051075;28;20212;-81
2022/10/02 01:29:56;;;;;;;0.40;0.40;;;;;;;;;;5051068;28;20221;-81
2022/10/02 01:32:24;;;;;;;0.50;0.40;;;;;;;;;;5051161;28;20233;-81
2022/10/02 01:34:51;;;;;;;0.20;0.20;;;;;;;;;;5050661;28;20300;-81
2022/10/02 01:37:18;;;;;;;0.27;0.23;;;;;;;;;;5051546;28;20259;-80
2022/10/02 01:39:45;;;;;;;0.40;0.40;;;;;;;;;;5050854;28;20206;-81
2022/10/02 01:42:12;;;;;;;0.50;0.50;;;;;;;;;;5051106;28;20707;-81
2022/10/02 01:44:40;;;;;;;0.33;0.33;;;;;;;;;;5050668;28;20202;-81
2022/10/02 01:47:09;;;;;;;0.63;0.63;;;;;;;;;;5050385;28;20205;-80
2022/10/02 01:49:57;;;;;;;1.43;0.87;;;;;;;;;;5050954;28;20224;-81
2022/10/02 01:52:31;;;;;;;0.70;0.70;;;;;;;;;;5038018;28;20283;-82
2022/10/02 01:55:14;;;;;;;0.23;0.23;;;;;;;;;;5050821;28;20204;-81
2022/10/02 01:57:50;;;;;;;0.70;0.70;;;;;;;;;;5050339;28;20202;-81
2022/10/02 02:00:21;;;;;;;1.40;0.70;;;;;;;;;;5050815;28;20625;-81
2022/10/02 02:02:54;;;;;;;0.40;0.40;;;;;;;;;;5050546;28;20198;-81
2022/10/02 02:05:27;;;;;;;0.70;0.70;;;;;;;;;;5049926;28;20297;-82
2022/10/02 02:08:01;;;;;;;0.60;0.60;;;;;;;;;;5050124;28;20205;-81
2022/10/02 02:10:36;;;;;;;0.80;0.80;;;;;;;;;;5050752;28;20280;-82
2022/10/02 02:13:08;;;;;;;1.57;1.47;;;;;;;;;;5050297;28;20629;-82
2022/10/02 02:15:40;;;;;;;0.63;0.63;;;;;;;;;;5049840;28;20217;-81
2022/10/02 02:18:11;;;;;;;0.80;0.80;;;;;;;;;;5050627;28;20205;-81
2022/10/02 02:20:43;;;;;;;0.53;0.53;;;;;;;;;;5049928;28;20201;-82
2022/10/02 02:23:12;;;;;;;0.60;0.60;;;;;;;;;;5050677;28;20213;-81
2022/10/02 02:25:42;;;;;;;0.60;0.60;;;;;;;;;;5050296;28;20216;-81
2022/10/02 02:28:11;;;;;;;0.97;0.80;;;;;;;;;;5050351;28;20229;-81
2022/10/02 02:30:42;;;;;;;0.50;0.50;;;;;;;;;;5050049;28;20205;-81
2022/10/02 02:33:12;;;;;;;0.73;0.73;;;;;;;;;;5050080;28;20606;-81
2022/10/02 02:35:42;;;;;;;0.60;0.60;;;;;;;;;;5050263;28;20233;-81
2022/10/02 02:38:24;;;;;;;0.70;0.70;;;;;;;;;;5050048;28;20738;-81
2022/10/02 02:40:52;;;;;;;2.77;0.77;;;;;;;;;;5050067;28;20673;-81
2022/10/02 02:43:22;;;;;;;0.60;0.60;;;;;;;;;;5050345;28;20209;-81
2022/10/02 02:45:54;;;;;;;0.90;0.90;;;;;;;;;;5049819;28;20209;-81
2022/10/02 02:48:23;;;;;;;0.60;0.60;;;;;;;;;;5050252;28;20221;-81
2022/10/02 02:50:51;;;;;;;0.60;0.60;;;;;;;;;;5050145;28;20218;-81
2022/10/02 02:53:21;;;;;;;0.50;0.50;;;;;;;;;;5050044;28;20266;-81
2022/10/02 02:55:50;;;;;;;0.30;0.30;;;;;;;;;;5049818;28;20644;-81
2022/10/02 02:58:19;;;;;;;0.27;0.27;;;;;;;;;;5050352;28;20205;-81
2022/10/02 03:00:46;;;;;;;0.40;0.40;;;;;;;;;;5050102;28;20206;-81
2022/10/02 03:03:14;;;;;;;0.47;0.47;;;;;;;;;;5050048;28;20718;-81
2022/10/02 03:05:44;;;;;;;0.37;0.37;;;;;;;;;;5049744;28;20201;-81
2022/10/02 03:08:18;;;;;;;0.67;0.40;;;;;;;;;;5050080;28;20209;-81
2022/10/02 03:10:56;;;;;;;0.60;0.60;;;;;;;;;;5049611;28;20202;-81
2022/10/02 03:13:32;;;;;;;0.40;0.40;;;;;;;;;;5050211;28;20696;-81
2022/10/02 03:16:11;;;;;;;0.20;0.20;;;;;;;;;;5049151;28;20221;-81
2022/10/02 03:18:52;;;;;;;0.30;0.30;;;;;;;;;;5052458;28;20244;-81
2022/10/02 03:21:26;;;;;;;0.70;0.70;;;;;;;;;;5053409;28;20201;-81
2022/10/02 03:24:00;;;;;;;0.57;0.57;;;;;;;;;;5053612;28;20205;-81
2022/10/02 03:26:33;;;;;;;0.60;0.60;;;;;;;;;;5053466;28;20201;-81
2022/10/02 03:29:01;;;;;;;0.30;0.30;;;;;;;;;;5053553;28;20253;-81
2022/10/02 03:31:30;;;;;;;0.63;0.63;;;;;;;;;;5053025;28;20206;-81
2022/10/02 03:33:59;;;;;;;0.60;0.60;;;;;;;;;;5053102;28;20198;-81
2022/10/02 03:36:26;;;;;;;0.50;0.50;;;;;;;;;;5053400;28;20225;-80
2022/10/02 03:38:56;;;;;;;0.60;0.60;;;;;;;;;;5053497;28;20205;-79
2022/10/02 03:41:22;;;;;;;0.30;0.30;;;;;;;;;;5053144;28;20216;-80
2022/10/02 03:43:49;;;;;;;0.60;0.40;;;;;;;;;;5053009;28;20198;-80
2022/10/02 03:46:16;;;;;;;0.57;0.57;;;;;;;;;;5052977;28;20208;-81
2022/10/02 03:48:42;;;;;;;0.83;0.77;;;;;;;;;;5053254;28;20214;-80
2022/10/02 03:51:11;;;;;;;0.47;0.47;;;;;;;;;;5053202;28;20652;-81
2022/10/02 03:53:38;;;;;;;0.60;0.60;;;;;;;;;;5052926;28;20202;-81
2022/10/02 03:56:07;;;;;;;0.30;0.30;;;;;;;;;;5053118;28;20268;-81
2022/10/02 03:58:35;;;;;;;0.50;0.50;;;;;;;;;;5052789;28;20613;-81
2022/10/02 04:01:04;;;;;;;0.53;0.53;;;;;;;;;;5052786;28;20198;-81
2022/10/02 04:03:34;;;;;;;0.70;0.70;;;;;;;;;;5052675;28;20765;-81
2022/10/02 04:06:03;;;;;;;0.70;0.70;;;;;;;;;;5052290;28;20192;-81
2022/10/02 04:08:34;;;;;;;0.63;0.50;;;;;;;;;;5052994;28;20212;-81
2022/10/02 04:11:06;;;;;;;0.90;0.90;;;;;;;;;;5052222;28;20201;-81
2022/10/02 04:13:36;;;;;;;0.60;0.60;;;;;;;;;;5052415;28;20756;-81
2022/10/02 04:16:08;;;;;;;0.30;0.30;;;;;;;;;;5052367;28;20236;-81
2022/10/02 04:18:39;;;;;;;0.40;0.40;;;;;;;;;;5052527;28;20216;-81
2022/10/02 04:21:11;;;;;;;0.30;0.30;;;;;;;;;;5052087;28;20559;-81
2022/10/02 04:23:43;;;;;;;0.30;0.30;;;;;;;;;;5052193;28;20745;-80
2022/10/02 04:26:15;;;;;;;0.40;0.40;;;;;;;;;;5052527;28;20204;-80
2022/10/02 04:28:45;;;;;;;0.30;0.30;;;;;;;;;;5051741;28;20228;-81
2022/10/02 04:31:13;;;;;;;0.33;0.33;;;;;;;;;;5051835;28;20232;-80
2022/10/02 04:33:40;;;;;;;0.50;0.50;;;;;;;;;;5052891;28;20237;-81
2022/10/02 04:36:17;;;;;;;0.60;0.60;;;;;;;;;;5051835;28;20600;-81
2022/10/02 04:39:07;;;;;;;0.20;0.20;;;;;;;;;;5038997;28;20206;-80
2022/10/02 04:41:50;;;;;;;0.30;0.30;;;;;;;;;;5052081;28;20227;-80
2022/10/02 04:44:29;;;;;;;0.70;0.50;;;;;;;;;;5051641;28;21140;-80
2022/10/02 04:47:26;;;;;;;0.27;0.27;;;;;;;;;;5052146;28;20239;-80
2022/10/02 04:50:04;;;;;;;0.50;0.50;;;;;;;;;;5051886;28;20209;-80
2022/10/02 04:52:44;;;;;;;0.40;0.40;;;;;;;;;;5051968;28;20212;-80
2022/10/02 04:55:29;;;;;;;0.60;0.60;;;;;;;;;;5051359;28;20206;-78
2022/10/02 04:58:24;;;;;;;0.43;0.43;;;;;;;;;;5052072;28;20234;-82
2022/10/02 05:00:58;;;;;;;0.30;0.30;;;;;;;;;;5050257;28;20255;-80
2022/10/02 05:03:35;;;;;;;0.40;0.40;;;;;;;;;;5052089;28;20286;-80
2022/10/02 05:06:13;;;;;;;0.30;0.30;;;;;;;;;;5051086;28;20570;-80
2022/10/02 05:08:56;;;;;;;0.30;0.30;;;;;;;;;;5051527;28;20678;-81
2022/10/02 05:11:40;;;;;;;0.70;0.70;;;;;;;;;;5051215;28;20350;-80
2022/10/02 05:14:39;;;;;;;0.40;0.40;;;;;;;;;;5051377;28;20223;-80
2022/10/02 05:17:16;;;;;;;0.83;0.83;;;;;;;;;;5051117;28;20238;-79
2022/10/02 05:20:04;;;;;;;0.90;0.77;;;;;;;;;;5051234;28;20204;-82
2022/10/02 05:22:55;;;;;;;0.50;0.50;;;;;;;;;;5051554;28;20210;-81
2022/10/02 05:25:38;;;;;;;0.70;0.70;;;;;;;;;;5051253;28;20203;-79
2022/10/02 05:28:23;;;;;;;0.60;0.60;;;;;;;;;;5050928;28;20208;-81
2022/10/02 05:30:55;;;;;;;1.00;1.00;;;;;;;;;;5051029;28;20713;-80
2022/10/02 05:33:55;;;;;;;0.93;0.93;;;;;;;;;;5051007;28;20225;-80
2022/10/02 05:36:42;;;;;;;0.83;0.83;;;;;;;;;;5050441;28;20228;-81
2022/10/02 05:39:11;;;;;;;0.70;0.70;;;;;;;;;;5050874;28;20213;-79
2022/10/02 05:41:48;;;;;;;1.10;1.10;;;;;;;;;;5051022;28;20286;-79
2022/10/02 05:44:19;;;;;;;1.20;1.20;;;;;;;;;;5050675;28;20274;-79
2022/10/02 05:46:49;;;;;;;1.00;1.00;;;;;;;;;;5050433;28;20209;-80
2022/10/02 05:49:18;;;;;;;0.90;0.90;;;;;;;;;;5050946;28;20216;-79
2022/10/02 05:51:52;;;;;;;0.83;0.83;;;;;;;;;;5050550;28;20228;-80
2022/10/02 05:54:27;;;;;;;1.57;1.47;;;;;;;;;;5050776;28;20209;-80
2022/10/02 05:56:57;;;;;;;0.93;0.93;;;;;;;;;;5050513;28;20222;-80
2022/10/02 05:59:32;;;;;;;0.83;0.83;;;;;;;;;;5050135;28;20204;-80
2022/10/02 06:02:02;;;;;;;1.07;0.97;;;;;;;;;;5050812;28;20639;-79
2022/10/02 06:04:33;;;;;;;1.30;1.30;;;;;;;;;;5050761;28;20201;-80
2022/10/02 06:07:05;;;;;;;1.53;1.20;;;;;;;;;;5050755;28;20215;-79
2022/10/02 06:09:35;;;;;;;1.40;1.30;;;;;;;;;;5050607;28;20289;-81
2022/10/02 06:12:04;;;;;;;1.10;1.10;;;;;;;;;;5050173;28;20205;-79
2022/10/02 06:14:36;;;;;;;1.30;1.20;;;;;;;;;;5050740;28;20198;-80
2022/10/02 06:17:05;;;;;;;1.57;1.47;;;;;;;;;;5050139;28;20326;-80
2022/10/02 06:19:35;;;;;;;0.90;0.90;;;;;;;;;;5050425;28;20216;-80
2022/10/02 06:22:06;;;;;;;1.47;1.10;;;;;;;;;;5050630;28;20212;-81
2022/10/02 06:24:36;;;;;;;1.00;1.00;;;;;;;;;;5050001;28;20211;-79
2022/10/02 06:27:08;;;;;;;1.07;1.07;;;;;;;;;;5050695;28;20207;-80
2022/10/02 06:29:40;;;;;;;1.13;1.13;;;;;;;;;;5050262;28;20209;-80
2022/10/02 06:32:15;;;;;;;1.47;1.37;;;;;;;;;;5050347;28;20647;-79
2022/10/02 06:34:44;;;;;;;1.10;1.10;;;;;;;;;;5049935;28;20220;-80
2022/10/02 06:37:45;;;;;;;1.47;1.43;;;;;;;;;;5050424;28;20315;-78
2022/10/02 06:40:31;;;;;;;1.30;1.20;;;;;;;;;;5027814;28;20201;-79
2022/10/02 06:43:03;;;;;;;0.80;0.80;;;;;;;;;;5050275;28;20212;-79
2022/10/02 06:45:37;;;;;;;0.97;0.90;;;;;;;;;;5036449;28;20210;-79
2022/10/02 06:48:08;;;;;;;0.60;0.60;;;;;;;;;;5050152;28;20202;-80
2022/10/02 06:50:42;;;;;;;1.17;1.17;;;;;;;;;;5036177;28;20714;-79
2022/10/02 06:53:24;;;;;;;0.90;0.90;;;;;;;;;;5051787;28;20585;-80
2022/10/02 06:55:58;;;;;;;1.07;0.90;;;;;;;;;;5041323;28;20197;-79
2022/10/02 06:58:47;;;;;;;0.87;0.73;;;;;;;;;;5054072;28;20229;-79
2022/10/02 07:01:22;;;;;;;0.33;0.33;;;;;;;;;;5053653;28;20757;-81
2022/10/02 07:04:00;;;;;;;0.60;0.60;;;;;;;;;;5053947;28;20263;-79
2022/10/02 07:06:35;;;;;;;1.77;1.00;;;;;;;;;;5053790;28;20206;-79
2022/10/02 07:09:28;;;;;;;0.60;0.60;;;;;;;;;;5053578;28;20197;-80
2022/10/02 07:12:03;;;;;;;1.80;0.70;;;;;;;;;;5054012;28;20263;-79
2022/10/02 07:14:40;;;;;;;0.60;0.60;;;;;;;;;;5053281;28;20216;-78
2022/10/02 07:17:19;;;;;;;0.53;0.53;;;;;;;;;;5053452;28;20236;-79
2022/10/02 07:20:15;;;;;;;0.77;0.77;;;;;;;;;;5053311;28;20209;-79
2022/10/02 07:22:55;;;;;;;0.73;0.60;;;;;;;;;;5020636;28;20645;-81
2022/10/02 07:25:57;;;;;;;0.67;0.67;;;;;;;;;;5053583;28;20237;-80
2022/10/02 07:28:28;;;;;;;0.97;0.97;;;;;;;;;;5053605;28;20240;-79
2022/10/02 07:31:00;;;;;;;0.80;0.80;;;;;;;;;;5053337;28;20209;-80
2022/10/02 07:33:39;;;;;;;0.63;0.63;;;;;;;;;;5053481;28;20233;-80
2022/10/02 07:36:11;;;;;;;0.67;0.67;;;;;;;;;;5053290;28;20680;-79
2022/10/02 07:38:57;;;;;;;0.50;0.50;;;;;;;;;;5053017;28;20633;-79
2022/10/02 07:41:45;;;;;;;0.70;0.70;;;;;;;;;;5053116;28;20209;-80
2022/10/02 07:44:20;;;;;;;0.50;0.50;;;;;;;;;;5050804;28;20267;-79
2022/10/02 07:46:54;;;;;;;0.50;0.50;;;;;;;;;;5053462;28;20213;-79
2022/10/02 07:49:37;;;;;;;1.90;0.67;;;;;;;;;;5052630;28;20202;-79
2022/10/02 07:52:10;;;;;;;0.40;0.40;;;;;;;;;;5052795;28;20210;-78
2022/10/02 07:54:47;;;;;;;0.40;0.40;;;;;;;;;;5052860;28;20206;-79
2022/10/02 07:57:32;;;;;;;0.60;0.60;;;;;;;;;;5052677;28;20304;-78
2022/10/02 08:00:05;;;;;;;4.33;0.70;;;;;;;;;;5051803;28;20194;-79
2022/10/02 08:02:36;;;;;;;0.50;0.50;;;;;;;;;;5052466;28;20205;-78
2022/10/02 08:05:07;;;;;;;0.50;0.50;;;;;;;;;;5052824;28;20198;-78
2022/10/02 08:07:34;;;;;;;0.40;0.40;;;;;;;;;;5052716;28;20240;-77
2022/10/02 08:10:03;;;;;;;0.40;0.40;;;;;;;;;;5052139;28;20198;-79
2022/10/02 08:12:35;;;;;;;0.60;0.60;;;;;;;;;;5052273;28;20208;-79
2022/10/02 08:15:04;;;;;;;0.80;0.80;;;;;;;;;;5052239;28;20198;-78
2022/10/02 08:17:35;;;;;;;0.43;0.43;;;;;;;;;;5052850;28;20252;-78
2022/10/02 08:20:08;;;;;;;0.40;0.40;;;;;;;;;;5051957;28;20202;-79
2022/10/02 08:22:37;;;;;;;0.40;0.40;;;;;;;;;;5052180;28;20209;-77
2022/10/02 08:25:09;;;;;;;0.63;0.40;;;;;;;;;;5052373;28;20206;-78
2022/10/02 08:27:48;;;;;;;0.40;0.40;;;;;;;;;;5052525;28;20206;-79
2022/10/02 08:30:15;;;;;;;0.40;0.40;;;;;;;;;;5051986;28;20209;-79
2022/10/02 08:32:42;;;;;;;0.40;0.40;;;;;;;;;;5051929;28;20225;-78
2022/10/02 08:35:13;;;;;;;1.30;0.50;;;;;;;;;;5051935;28;20225;-80
2022/10/02 08:37:46;;;;;;;0.70;0.70;;;;;;;;;;5051811;28;20655;-80
2022/10/02 08:40:45;;;;;;;0.70;0.70;;;;;;;;;;5051787;28;20202;-79
2022/10/02 08:43:43;;;;;;;0.40;0.40;;;;;;;;;;5051797;28;20205;-79
2022/10/02 08:46:47;;;;;;;0.50;0.50;;;;;;;;;;5051626;28;20259;-79
2022/10/02 08:49:49;;;;;;;0.47;0.47;;;;;;;;;;5051539;28;20292;-77
2022/10/02 08:52:42;;;;;;;0.83;0.83;;;;;;;;;;5041678;28;20202;-78
2022/10/02 08:55:25;;;;;;;0.77;0.77;;;;;;;;;;5035677;28;20202;-77
2022/10/02 08:58:35;;;;;;;0.60;0.60;;;;;;;;;;5051756;28;20291;-77
2022/10/02 09:01:12;;;;;;;0.77;0.60;;;;;;;;;;5051333;28;20201;-78
2022/10/02 09:04:04;;;;;;;1.43;0.80;;;;;;;;;;5051756;28;20213;-78
2022/10/02 09:07:20;;;;;;;0.57;0.53;;;;;;;;;;5038928;28;20209;-77
2022/10/02 09:10:16;;;;;;;0.63;0.53;;;;;;;;;;5037774;28;20229;-78
2022/10/02 09:13:28;;;;;;;0.33;0.33;;;;;;;;;;5051023;28;20202;-79
2022/10/02 09:16:08;;;;;;;0.50;0.50;;;;;;;;;;5050527;28;20641;-78
2022/10/02 09:18:51;;;;;;;0.40;0.40;;;;;;;;;;5051169;28;20743;-77
2022/10/02 09:21:19;;;;;;;2.30;0.60;;;;;;;;;;5050932;28;20206;-78
2022/10/02 09:24:28;;;;;;;0.30;0.30;;;;;;;;;;5050998;28;20198;-78
2022/10/02 09:27:30;;;;;;;0.50;0.50;;;;;;;;;;5040971;28;20583;-78
2022/10/02 09:30:19;;;;;;;0.63;0.63;;;;;;;;;;5047713;28;20651;-77
2022/10/02 09:33:38;;;;;;;0.40;0.40;;;;;;;;;;5051412;28;20280;-77
2022/10/02 09:36:46;;;;;;;0.40;0.40;;;;;;;;;;5050885;28;20255;-78
2022/10/02 09:39:43;;;;;;;0.40;0.40;;;;;;;;;;5050730;28;20233;-78
2022/10/02 09:42:45;;;;;;;0.60;0.60;;;;;;;;;;5037641;28;20206;-78
2022/10/02 09:45:38;;;;;;;0.33;0.33;;;;;;;;;;5050858;28;20197;-78
2022/10/02 09:48:34;;;;;;;0.30;0.30;;;;;;;;;;5050880;28;20213;-78
2022/10/02 09:51:25;;;;;;;0.40;0.40;;;;;;;;;;5050633;28;21080;-77
2022/10/02 09:54:49;;;;;;;0.47;0.47;;;;;;;;;;5050506;28;20194;-77
2022/10/02 09:57:49;;;;;;;0.30;0.30;;;;;;;;;;5050253;28;20217;-78
2022/10/02 10:00:25;;;;;;;0.40;0.40;;;;;;;;;;5033437;28;20221;-78
2022/10/02 10:03:35;;;;;;;1.47;0.53;;;;;;;;;;5050526;28;20201;-78
2022/10/02 10:06:28;;;;;;;0.30;0.30;;;;;;;;;;5050289;28;20255;-77
2022/10/02 10:09:39;;;;;;;0.40;0.40;;;;;;;;;;5050198;28;20209;-78
2022/10/02 10:12:22;;;;;;;0.50;0.50;;;;;;;;;;5049473;28;20707;-77
2022/10/02 10:15:28;;;;;;;0.37;0.37;;;;;;;;;;5050104;28;20205;-78
2022/10/02 10:18:38;;;;;;;0.40;0.40;;;;;;;;;;5049987;28;20232;-77
2022/10/02 10:21:15;;;;;;;0.30;0.30;;;;;;;;;;5008280;28;20242;-77
2022/10/02 10:23:56;;;;;;;6.77;0.83;;;;;;;;;;5037252;28;20228;-79
2022/10/02 10:26:49;;;;;;;0.37;0.37;;;;;;;;;;5049725;28;20205;-78
2022/10/02 10:29:44;;;;;;;0.40;0.40;;;;;;;;;;5054030;28;20213;-77
2022/10/02 10:32:54;;;;;;;0.30;0.30;;;;;;;;;;5054772;28;20233;-78
2022/10/02 10:35:29;;;;;;;0.40;0.40;;;;;;;;;;5054099;28;20209;-77
2022/10/02 10:41:23;;;;;;;0.60;0.60;;;;;;;;;;5053660;28;20213;-78
2022/10/02 10:44:11;;;;;;;0.40;0.40;;;;;;;;;;5018466;28;20229;-77
2022/10/02 10:47:07;;;;;;;0.50;0.50;;;;;;;;;;5054213;28;20205;-77
2022/10/02 10:50:03;;;;;;;0.30;0.30;;;;;;;;;;5050196;28;20201;-77
2022/10/02 10:52:46;;;;;;;0.50;0.50;;;;;;;;;;5036169;28;20206;-77
2022/10/02 10:55:18;;;;;;;0.70;0.70;;;;;;;;;;5053891;28;20197;-78
2022/10/02 10:57:57;;;;;;;0.30;0.30;;;;;;;;;;5053632;28;20236;-76
2022/10/02 11:00:25;;;;;;;0.67;0.67;;;;;;;;;;5053698;28;20201;-77
2022/10/02 11:02:58;;;;;;;0.83;0.83;;;;;;;;;;5053952;28;20212;-77
2022/10/02 11:06:02;;;;;;;0.50;0.50;;;;;;;;;;5053950;28;20209;-77
2022/10/02 11:08:53;;;;;;;0.50;0.50;;;;;;;;;;5038610;28;20214;-78
2022/10/02 11:11:22;;;;;;;0.43;0.43;;;;;;;;;;5053456;28;20208;-77
2022/10/02 11:14:04;;;;;;;0.57;0.57;;;;;;;;;;5053569;28;20210;-77
2022/10/02 11:17:05;;;;;;;0.50;0.50;;;;;;;;;;5053422;28;20214;-77
2022/10/02 11:19:40;;;;;;;0.57;0.57;;;;;;;;;;5028495;28;20237;-78
2022/10/02 11:22:25;;;;;;;0.63;0.63;;;;;;;;;;5053451;28;20280;-78
2022/10/02 11:25:10;;;;;;;0.60;0.60;;;;;;;;;;5052895;28;20205;-78
2022/10/02 11:28:15;;;;;;;1.77;1.70;;;;;;;;;;5053770;28;20228;-77
2022/10/02 11:30:51;;;;;;;0.50;0.50;;;;;;;;;;5034004;28;20201;-77
2022/10/02 11:33:32;;;;;;;0.40;0.40;;;;;;;;;;5053153;28;20318;-77
2022/10/02 11:36:41;;;;;;;0.70;0.70;;;;;;;;;;5053177;28;20216;-77
2022/10/02 11:39:15;;;;;;;0.43;0.43;;;;;;;;;;5047321;28;20318;-78
2022/10/02 11:42:17;;;;;;;2.87;0.70;;;;;;;;;;5053390;28;20205;-77
2022/10/02 11:45:07;;;;;;;0.40;0.40;;;;;;;;;;5050656;28;20197;-78
2022/10/02 11:47:55;;;;;;;1.07;0.47;;;;;;;;;;5052724;28;20292;-77
2022/10/02 11:50:49;;;;;;;0.90;0.50;;;;;;;;;;5052873;28;20587;-78
2022/10/02 11:53:42;;;;;;;0.40;0.40;;;;;;;;;;5043836;28;20213;-80
2022/10/02 11:56:35;;;;;;;1.70;1.10;;;;;;;;;;5053174;28;20233;-78
2022/10/02 11:59:17;;;;;;;0.50;0.50;;;;;;;;;;5046978;28;20222;-78
2022/10/02 12:01:46;;;;;;;0.43;0.43;;;;;;;;;;5053324;28;20205;-77
2022/10/02 12:04:22;;;;;;;0.40;0.40;;;;;;;;;;5052332;28;20229;-79
2022/10/02 12:06:59;;;;;;;9.73;1.70;;;;;;;;;;5052754;28;20202;-78
2022/10/02 12:09:36;;;;;;;0.43;0.43;;;;;;;;;;5052243;28;20198;-78
2022/10/02 12:12:15;;;;;;;1.23;0.40;;;;;;;;;;5052670;28;20206;-77
2022/10/02 12:14:49;;;;;;;0.30;0.30;;;;;;;;;;5052201;28;20205;-77
2022/10/02 12:17:40;;;;;;;0.40;0.40;;;;;;;;;;5052766;28;20231;-81
2022/10/02 12:28:44;;;;;;;1.50;0.50;;;;;;;;;;5038954;28;20234;-79
2022/10/02 12:31:15;;;;;;;1.87;1.77;;;;;;;;;;5051955;28;20209;-79
2022/10/02 12:33:48;;;;;;;0.47;0.47;;;;;;;;;;5052001;28;20241;-78
2022/10/02 12:36:23;;;;;;;0.40;0.40;;;;;;;;;;5052621;28;20412;-78
2022/10/02 12:38:59;;;;;;;0.40;0.40;;;;;;;;;;5051669;28;20749;-78
2022/10/02 12:41:53;;;;;;;0.40;0.40;;;;;;;;;;5051872;28;20710;-79
2022/10/02 12:44:33;;;;;;;0.50;0.50;;;;;;;;;;5041860;28;20340;-77
2022/10/02 12:47:12;;;;;;;0.47;0.47;;;;;;;;;;5052278;28;20194;-77
2022/10/02 12:49:54;;;;;;;0.40;0.40;;;;;;;;;;5050878;28;20680;-78
2022/10/02 12:53:03;;;;;;;0.33;0.33;;;;;;;;;;5037769;28;20690;-78
2022/10/02 12:56:00;;;;;;;0.30;0.30;;;;;;;;;;5012840;28;20209;-78
2022/10/02 12:58:32;;;;;;;0.43;0.43;;;;;;;;;;5051058;28;20711;-78
2022/10/02 13:01:12;;;;;;;0.40;0.40;;;;;;;;;;5051728;28;20209;-78
2022/10/02 13:03:54;;;;;;;0.50;0.50;;;;;;;;;;5052014;28;20576;-80
2022/10/02 13:06:47;;;;;;;0.40;0.40;;;;;;;;;;5037719;28;20617;-78
2022/10/02 13:09:20;;;;;;;0.40;0.40;;;;;;;;;;5051150;28;20201;-77
2022/10/02 13:12:07;;;;;;;0.50;0.50;;;;;;;;;;5051751;28;20226;-77
2022/10/02 13:14:52;;;;;;;0.60;0.60;;;;;;;;;;5051251;28;20268;-78
2022/10/02 13:17:27;;;;;;;0.33;0.33;;;;;;;;;;5050761;28;20212;-79
2022/10/02 13:20:04;;;;;;;1.80;0.60;;;;;;;;;;5051260;28;20221;-81
2022/10/02 13:22:38;;;;;;;0.60;0.60;;;;;;;;;;5051115;28;20753;-78
2022/10/02 13:25:33;;;;;;;1.53;1.10;;;;;;;;;;5037426;28;20202;-77
2022/10/02 13:28:08;;;;;;;1.13;0.40;;;;;;;;;;5051545;28;20198;-77
2022/10/02 13:30:38;;;;;;;0.40;0.40;;;;;;;;;;5050623;28;20212;-78
2022/10/02 13:33:26;;;;;;;0.40;0.40;;;;;;;;;;5050948;28;20233;-77
2022/10/02 13:36:00;;;;;;;0.30;0.30;;;;;;;;;;5050593;28;20202;-78
2022/10/02 13:38:43;;;;;;;0.40;0.40;;;;;;;;;;5050529;28;20266;-77
2022/10/02 13:41:25;;;;;;;0.43;0.43;;;;;;;;;;5050927;28;20263;-78
2022/10/02 13:44:03;;;;;;;0.60;0.50;;;;;;;;;;5050892;28;20229;-77
2022/10/02 13:46:44;;;;;;;0.40;0.40;;;;;;;;;;5050592;28;20987;-77
2022/10/02 13:49:17;;;;;;;0.93;0.40;;;;;;;;;;5050555;28;20233;-77
2022/10/02 13:51:52;;;;;;;0.40;0.40;;;;;;;;;;5050796;28;20263;-77
2022/10/02 13:54:37;;;;;;;0.77;0.60;;;;;;;;;;5050515;28;20264;-77
2022/10/02 13:57:09;;;;;;;0.93;0.80;;;;;;;;;;5050606;28;20206;-78
2022/10/02 14:00:03;;;;;;;0.50;0.50;;;;;;;;;;5036807;28;20700;-77
2022/10/02 14:02:46;;;;;;;0.40;0.40;;;;;;;;;;5050339;28;20289;-78
2022/10/02 14:05:20;;;;;;;0.40;0.40;;;;;;;;;;5049933;28;20194;-78
2022/10/02 14:08:04;;;;;;;0.50;0.50;;;;;;;;;;5050582;28;20193;-78
2022/10/02 14:10:41;;;;;;;0.50;0.50;;;;;;;;;;5050637;28;20259;-78
2022/10/02 14:13:18;;;;;;;0.50;0.50;;;;;;;;;;5050326;28;20571;-78
2022/10/02 14:15:55;;;;;;;0.43;0.43;;;;;;;;;;5050182;28;20209;-77
2022/10/02 14:18:38;;;;;;;0.40;0.40;;;;;;;;;;5050747;28;20255;-78
2022/10/02 14:21:13;;;;;;;0.40;0.40;;;;;;;;;;5051164;28;20206;-78
2022/10/02 14:24:02;;;;;;;0.80;0.70;;;;;;;;;;5050199;28;20734;-78
2022/10/02 14:26:41;;;;;;;0.20;0.20;;;;;;;;;;5037843;28;20226;-78
2022/10/02 14:29:24;;;;;;;0.40;0.40;;;;;;;;;;5046895;28;20206;-78
2022/10/02 14:32:07;;;;;;;0.50;0.50;;;;;;;;;;5039983;28;20230;-77
2022/10/02 14:34:50;;;;;;;0.53;0.53;;;;;;;;;;5031589;28;20207;-78
2022/10/02 14:37:40;;;;;;;0.67;0.67;;;;;;;;;;5035380;28;20609;-78
2022/10/02 14:40:13;;;;;;;0.50;0.50;;;;;;;;;;5044101;28;20236;-78
2022/10/02 14:42:59;;;;;;;0.50;0.50;;;;;;;;;;5049816;28;20742;-77
2022/10/02 14:45:45;;;;;;;0.60;0.60;;;;;;;;;;5049999;28;20668;-77
2022/10/02 14:48:20;;;;;;;1.60;1.03;;;;;;;;;;5050197;28;20197;-78
2022/10/02 14:51:04;;;;;;;0.73;0.73;;;;;;;;;;5050242;28;20615;-78
2022/10/02 14:54:05;;;;;;;0.67;0.67;;;;;;;;;;5049861;28;20220;-78
2022/10/02 14:56:48;;;;;;;0.23;0.23;;;;;;;;;;5027532;28;20680;-77
2022/10/02 14:59:42;;;;;;;0.67;0.67;;;;;;;;;;5049812;28;20218;-78
2022/10/02 15:02:23;;;;;;;0.50;0.50;;;;;;;;;;5049975;28;20206;-77
2022/10/02 15:04:55;;;;;;;0.50;0.50;;;;;;;;;;5049902;28;20198;-78
2022/10/02 15:07:23;;;;;;;0.50;0.50;;;;;;;;;;5050112;28;20209;-78
2022/10/02 15:10:08;;;;;;;0.50;0.50;;;;;;;;;;5049557;28;20198;-78
2022/10/02 15:12:46;;;;;;;0.50;0.50;;;;;;;;;;5049721;28;20209;-77
2022/10/02 15:15:17;;;;;;;0.70;0.70;;;;;;;;;;5053448;28;20198;-78
2022/10/02 15:17:54;;;;;;;0.50;0.50;;;;;;;;;;5053530;28;20615;-77
2022/10/02 15:20:40;;;;;;;0.53;0.53;;;;;;;;;;5053105;28;20731;-77
2022/10/02 15:23:11;;;;;;;1.00;0.60;;;;;;;;;;5053344;28;20684;-78
2022/10/02 15:26:08;;;;;;;0.53;0.53;;;;;;;;;;5053420;28;20293;-77
2022/10/02 15:28:48;;;;;;;0.60;0.60;;;;;;;;;;5035739;28;20692;-77
2022/10/02 15:31:21;;;;;;;0.40;0.40;;;;;;;;;;5053219;28;20212;-77
2022/10/02 15:33:57;;;;;;;0.37;0.37;;;;;;;;;;5053396;28;20677;-77
2022/10/02 15:36:42;;;;;;;0.43;0.43;;;;;;;;;;5053349;28;20205;-77
2022/10/02 15:39:25;;;;;;;0.50;0.50;;;;;;;;;;5053053;28;20850;-78
2022/10/02 15:42:04;;;;;;;0.60;0.60;;;;;;;;;;5052987;28;20630;-78
2022/10/02 15:45:00;;;;;;;0.40;0.40;;;;;;;;;;5053258;28;20263;-77
2022/10/02 15:47:48;;;;;;;0.50;0.50;;;;;;;;;;5046407;28;20209;-77
2022/10/02 15:50:28;;;;;;;0.77;0.77;;;;;;;;;;5052792;28;20202;-76
2022/10/02 15:53:06;;;;;;;0.50;0.50;;;;;;;;;;5052939;28;20709;-77
2022/10/02 15:55:40;;;;;;;0.60;0.60;;;;;;;;;;5052601;28;20201;-76
2022/10/02 15:58:25;;;;;;;0.50;0.50;;;;;;;;;;5053203;28;20205;-78
2022/10/02 16:01:09;;;;;;;0.53;0.53;;;;;;;;;;5052772;28;20241;-77
2022/10/02 16:03:42;;;;;;;0.60;0.60;;;;;;;;;;5052612;28;20202;-77
2022/10/02 16:06:13;;;;;;;0.53;0.53;;;;;;;;;;5052312;28;20212;-76